sensor_id;sensor_type;location;lat;lon;timestamp;pressure;altitude;pressure_sealevel;temperature;humidity
21153;BME280;10734;44.792;20.482;2023-04-20T06:08:20;99815.81;;;10.91;nan
21153;BME280;10734;44.792;20.482;2023-04-20T06:10:48;99824.31;;;11.13;nan
21153;BME280;10734;44.792;20.482;2023-04-20T06:13:16;99822.38;;;11.29;nan
21153;BME280;10734;44.792;20.482;2023-04-20T06:15:44;99837.59;;;11.30;nan
21153;BME280;10734;44.792;20.482;2023-04-20T06:18:12;99821.63;;;11.42;nan
21153;BME280;10734;44.792;20.482;2023-04-20T06:20:42;99825.16;;;11.56;nan
21153;BME280;10734;44.792;20.482;2023-04-20T06:23:09;99830.25;;;11.75;nan
21153;BME280;10734;44.792;20.482;2023-04-20T06:25:38;99830.44;;;11.87;nan
21153;BME280;10734;44.792;20.482;2023-04-20T06:28:07;99828.22;;;11.93;nan
21153;BME280;10734;44.792;20.482;2023-04-20T06:30:33;99830.72;;;11.82;nan
21153;BME280;10734;44.792;20.482;2023-04-20T06:33:02;99831.56;;;11.97;nan
21153;BME280;10734;44.792;20.482;2023-04-20T06:35:30;99828.16;;;12.35;nan
21153;BME280;10734;44.792;20.482;2023-04-20T06:37:58;99832.84;;;12.18;nan
21153;BME280;10734;44.792;20.482;2023-04-20T06:40:28;99836.59;;;12.16;nan
21153;BME280;10734;44.792;20.482;2023-04-20T06:42:56;99834.50;;;12.61;nan
21153;BME280;10734;44.792;20.482;2023-04-20T06:45:23;99840.41;;;12.53;nan
21153;BME280;10734;44.792;20.482;2023-04-20T06:47:52;99846.09;;;12.36;nan
21153;BME280;10734;44.792;20.482;2023-04-20T06:50:21;99844.25;;;12.76;nan
21153;BME280;10734;44.792;20.482;2023-04-20T06:52:48;99836.84;;;13.05;nan
21153;BME280;10734;44.792;20.482;2023-04-20T06:55:16;99843.44;;;13.14;nan
21153;BME280;10734;44.792;20.482;2023-04-20T06:57:43;99844.94;;;12.92;nan
21153;BME280;10734;44.792;20.482;2023-04-20T07:00:10;99849.47;;;12.92;nan
21153;BME280;10734;44.792;20.482;2023-04-20T07:02:45;99850.50;;;12.76;nan
21153;BME280;10734;44.792;20.482;2023-04-20T07:05:13;99856.28;;;12.97;nan
21153;BME280;10734;44.792;20.482;2023-04-20T07:07:40;99854.25;;;13.01;nan
21153;BME280;10734;44.792;20.482;2023-04-20T07:10:08;99860.50;;;13.14;nan
21153;BME280;10734;44.792;20.482;2023-04-20T07:12:35;99854.25;;;13.65;nan
21153;BME280;10734;44.792;20.482;2023-04-20T07:15:03;99855.78;;;13.56;nan
21153;BME280;10734;44.792;20.482;2023-04-20T07:17:30;99852.19;;;13.05;nan
21153;BME280;10734;44.792;20.482;2023-04-20T07:19:58;99853.09;;;13.56;nan
21153;BME280;10734;44.792;20.482;2023-04-20T07:22:32;99856.44;;;13.60;nan
21153;BME280;10734;44.792;20.482;2023-04-20T07:25:00;99859.53;;;13.79;nan
21153;BME280;10734;44.792;20.482;2023-04-20T07:27:29;99863.13;;;14.16;nan
21153;BME280;10734;44.792;20.482;2023-04-20T07:29:57;99858.84;;;14.49;nan
21153;BME280;10734;44.792;20.482;2023-04-20T07:32:24;99855.81;;;14.78;nan
21153;BME280;10734;44.792;20.482;2023-04-20T07:34:51;99857.00;;;14.26;nan
21153;BME280;10734;44.792;20.482;2023-04-20T07:37:18;99854.88;;;13.81;nan
21153;BME280;10734;44.792;20.482;2023-04-20T07:39:45;99861.91;;;14.44;nan
21153;BME280;10734;44.792;20.482;2023-04-20T07:42:12;99868.38;;;14.79;nan
21153;BME280;10734;44.792;20.482;2023-04-20T07:44:38;99851.44;;;15.10;nan
21153;BME280;10734;44.792;20.482;2023-04-20T07:47:05;99861.19;;;15.13;nan
21153;BME280;10734;44.792;20.482;2023-04-20T07:49:35;99860.88;;;15.40;nan
21153;BME280;10734;44.792;20.482;2023-04-20T07:52:02;99862.50;;;15.43;nan
21153;BME280;10734;44.792;20.482;2023-04-20T07:54:41;99862.22;;;15.34;nan
21153;BME280;10734;44.792;20.482;2023-04-20T07:57:08;99856.84;;;14.88;nan
21153;BME280;10734;44.792;20.482;2023-04-20T07:59:35;99862.72;;;14.82;nan
21153;BME280;10734;44.792;20.482;2023-04-20T08:02:02;99858.56;;;14.89;nan
21153;BME280;10734;44.792;20.482;2023-04-20T08:04:29;99858.63;;;15.11;nan
21153;BME280;10734;44.792;20.482;2023-04-20T08:06:56;99862.25;;;14.88;nan
21153;BME280;10734;44.792;20.482;2023-04-20T08:09:23;99858.06;;;14.60;nan
21153;BME280;10734;44.792;20.482;2023-04-20T08:11:51;99865.25;;;14.24;nan
21153;BME280;10734;44.792;20.482;2023-04-20T08:14:18;99855.94;;;14.87;nan
21153;BME280;10734;44.792;20.482;2023-04-20T08:16:45;99852.97;;;15.48;nan
21153;BME280;10734;44.792;20.482;2023-04-20T08:19:12;99851.16;;;15.94;nan
21153;BME280;10734;44.792;20.482;2023-04-20T08:21:43;99856.53;;;16.16;nan
21153;BME280;10734;44.792;20.482;2023-04-20T08:24:10;99861.97;;;16.27;nan
21153;BME280;10734;44.792;20.482;2023-04-20T08:26:38;99858.59;;;16.78;nan
21153;BME280;10734;44.792;20.482;2023-04-20T08:29:05;99865.28;;;16.63;nan
21153;BME280;10734;44.792;20.482;2023-04-20T08:31:32;99856.28;;;16.95;nan
21153;BME280;10734;44.792;20.482;2023-04-20T08:33:59;99854.94;;;17.31;nan
21153;BME280;10734;44.792;20.482;2023-04-20T08:36:26;99861.59;;;17.17;nan
21153;BME280;10734;44.792;20.482;2023-04-20T08:41:31;99859.41;;;16.90;nan
21153;BME280;10734;44.792;20.482;2023-04-20T08:43:58;99853.50;;;17.27;nan
21153;BME280;10734;44.792;20.482;2023-04-20T08:46:25;99862.53;;;17.27;nan
21153;BME280;10734;44.792;20.482;2023-04-20T08:48:52;99861.94;;;17.24;nan
21153;BME280;10734;44.792;20.482;2023-04-20T08:51:22;99861.38;;;16.56;nan
21153;BME280;10734;44.792;20.482;2023-04-20T08:53:50;99861.47;;;16.66;nan
21153;BME280;10734;44.792;20.482;2023-04-20T08:56:17;99861.25;;;16.90;nan
21153;BME280;10734;44.792;20.482;2023-04-20T08:58:44;99865.25;;;16.86;nan
21153;BME280;10734;44.792;20.482;2023-04-20T09:01:11;99859.47;;;17.00;nan
21153;BME280;10734;44.792;20.482;2023-04-20T09:03:41;99859.25;;;17.55;nan
21153;BME280;10734;44.792;20.482;2023-04-20T09:06:16;99861.22;;;18.14;nan
21153;BME280;10734;44.792;20.482;2023-04-20T09:08:44;99868.91;;;18.59;nan
21153;BME280;10734;44.792;20.482;2023-04-20T09:16:28;99861.59;;;18.98;nan
21153;BME280;10734;44.792;20.482;2023-04-20T09:18:56;99861.84;;;19.44;nan
21153;BME280;10734;44.792;20.482;2023-04-20T09:21:24;99855.41;;;19.82;nan
21153;BME280;10734;44.792;20.482;2023-04-20T09:24:03;99849.59;;;20.22;nan
21153;BME280;10734;44.792;20.482;2023-04-20T09:26:34;99855.34;;;20.19;nan
21153;BME280;10734;44.792;20.482;2023-04-20T09:29:18;99857.63;;;20.24;nan
21153;BME280;10734;44.792;20.482;2023-04-20T09:31:46;99856.41;;;19.81;nan
21153;BME280;10734;44.792;20.482;2023-04-20T09:34:14;99854.34;;;20.20;nan
21153;BME280;10734;44.792;20.482;2023-04-20T09:36:44;99850.13;;;19.71;nan
21153;BME280;10734;44.792;20.482;2023-04-20T09:39:13;99853.44;;;20.02;nan
21153;BME280;10734;44.792;20.482;2023-04-20T09:41:43;99850.38;;;20.32;nan
21153;BME280;10734;44.792;20.482;2023-04-20T09:44:11;99853.28;;;20.03;nan
21153;BME280;10734;44.792;20.482;2023-04-20T09:46:40;99858.38;;;19.89;nan
21153;BME280;10734;44.792;20.482;2023-04-20T09:49:08;99851.03;;;20.17;nan
21153;BME280;10734;44.792;20.482;2023-04-20T09:51:37;99854.50;;;20.64;nan
21153;BME280;10734;44.792;20.482;2023-04-20T09:54:07;99854.88;;;20.51;nan
21153;BME280;10734;44.792;20.482;2023-04-20T09:56:34;99851.56;;;20.02;nan
21153;BME280;10734;44.792;20.482;2023-04-20T09:59:02;99853.00;;;19.69;nan
21153;BME280;10734;44.792;20.482;2023-04-20T10:01:33;99850.09;;;19.80;nan
21153;BME280;10734;44.792;20.482;2023-04-20T10:04:05;99841.69;;;19.92;nan
21153;BME280;10734;44.792;20.482;2023-04-20T10:06:33;99844.75;;;20.34;nan
21153;BME280;10734;44.792;20.482;2023-04-20T10:09:03;99838.78;;;20.48;nan
21153;BME280;10734;44.792;20.482;2023-04-20T10:11:36;99835.47;;;19.99;nan
21153;BME280;10734;44.792;20.482;2023-04-20T10:14:24;99843.31;;;19.37;nan
21153;BME280;10734;44.792;20.482;2023-04-20T10:19:42;99831.94;;;19.42;nan
21153;BME280;10734;44.792;20.482;2023-04-20T10:22:12;99822.59;;;19.35;nan
21153;BME280;10734;44.792;20.482;2023-04-20T10:24:39;99825.47;;;19.43;nan
21153;BME280;10734;44.792;20.482;2023-04-20T10:27:16;99825.25;;;19.74;nan
21153;BME280;10734;44.792;20.482;2023-04-20T10:29:43;99819.31;;;20.06;nan
21153;BME280;10734;44.792;20.482;2023-04-20T10:32:29;99822.84;;;20.79;nan
21153;BME280;10734;44.792;20.482;2023-04-20T10:35:00;99817.53;;;21.22;nan
21153;BME280;10734;44.792;20.482;2023-04-20T10:37:28;99805.34;;;21.68;nan
21153;BME280;10734;44.792;20.482;2023-04-20T10:39:55;99813.81;;;22.34;nan
21153;BME280;10734;44.792;20.482;2023-04-20T10:42:22;99815.97;;;22.14;nan
21153;BME280;10734;44.792;20.482;2023-04-20T10:44:50;99814.72;;;22.00;nan
21153;BME280;10734;44.792;20.482;2023-04-20T10:47:25;99812.00;;;21.14;nan
21153;BME280;10734;44.792;20.482;2023-04-20T10:49:52;99817.38;;;20.79;nan
21153;BME280;10734;44.792;20.482;2023-04-20T10:52:32;99799.97;;;21.07;nan
21153;BME280;10734;44.792;20.482;2023-04-20T10:55:01;99810.03;;;21.50;nan
21153;BME280;10734;44.792;20.482;2023-04-20T10:57:29;99811.66;;;21.35;nan
21153;BME280;10734;44.792;20.482;2023-04-20T10:59:56;99803.03;;;21.90;nan
21153;BME280;10734;44.792;20.482;2023-04-20T11:02:23;99809.69;;;22.22;nan
21153;BME280;10734;44.792;20.482;2023-04-20T11:04:50;99801.19;;;22.65;nan
21153;BME280;10734;44.792;20.482;2023-04-20T11:07:18;99797.41;;;22.91;nan
21153;BME280;10734;44.792;20.482;2023-04-20T11:09:52;99795.38;;;22.77;nan
21153;BME280;10734;44.792;20.482;2023-04-20T11:12:20;99796.13;;;22.20;nan
21153;BME280;10734;44.792;20.482;2023-04-20T11:15:05;99793.75;;;21.83;nan
21153;BME280;10734;44.792;20.482;2023-04-20T11:17:37;99786.19;;;21.42;nan
21153;BME280;10734;44.792;20.482;2023-04-20T11:22:37;99790.41;;;20.67;nan
21153;BME280;10734;44.792;20.482;2023-04-20T11:25:07;99789.50;;;21.28;nan
21153;BME280;10734;44.792;20.482;2023-04-20T11:27:35;99787.56;;;21.46;nan
21153;BME280;10734;44.792;20.482;2023-04-20T11:30:04;99787.28;;;21.32;nan
21153;BME280;10734;44.792;20.482;2023-04-20T11:32:31;99786.75;;;21.02;nan
21153;BME280;10734;44.792;20.482;2023-04-20T11:35:04;99795.56;;;21.14;nan
21153;BME280;10734;44.792;20.482;2023-04-20T11:37:44;99794.78;;;21.47;nan
21153;BME280;10734;44.792;20.482;2023-04-20T11:40:12;99795.56;;;22.08;nan
21153;BME280;10734;44.792;20.482;2023-04-20T11:42:40;99789.09;;;22.17;nan
21153;BME280;10734;44.792;20.482;2023-04-20T11:45:07;99788.88;;;22.11;nan
21153;BME280;10734;44.792;20.482;2023-04-20T11:47:34;99797.63;;;21.38;nan
21153;BME280;10734;44.792;20.482;2023-04-20T11:50:01;99790.00;;;20.79;nan
21153;BME280;10734;44.792;20.482;2023-04-20T11:52:28;99793.88;;;20.23;nan
21153;BME280;10734;44.792;20.482;2023-04-20T11:54:55;99787.38;;;19.79;nan
21153;BME280;10734;44.792;20.482;2023-04-20T11:57:21;99791.22;;;19.86;nan
21153;BME280;10734;44.792;20.482;2023-04-20T11:59:49;99782.75;;;20.07;nan
21153;BME280;10734;44.792;20.482;2023-04-20T12:02:16;99780.94;;;20.79;nan
21153;BME280;10734;44.792;20.482;2023-04-20T12:04:43;99777.19;;;21.58;nan
21153;BME280;10734;44.792;20.482;2023-04-20T12:07:10;99773.84;;;21.72;nan
21153;BME280;10734;44.792;20.482;2023-04-20T12:09:37;99770.06;;;21.73;nan
21153;BME280;10734;44.792;20.482;2023-04-20T12:12:04;99773.00;;;22.31;nan
21153;BME280;10734;44.792;20.482;2023-04-20T12:14:31;99762.06;;;22.72;nan
21153;BME280;10734;44.792;20.482;2023-04-20T12:17:02;99774.22;;;22.44;nan
21153;BME280;10734;44.792;20.482;2023-04-20T12:19:30;99774.09;;;21.95;nan
21153;BME280;10734;44.792;20.482;2023-04-20T12:21:57;99773.94;;;21.55;nan
21153;BME280;10734;44.792;20.482;2023-04-20T12:24:24;99754.56;;;20.96;nan
21153;BME280;10734;44.792;20.482;2023-04-20T12:26:50;99754.34;;;20.71;nan
21153;BME280;10734;44.792;20.482;2023-04-20T12:29:17;99760.19;;;20.94;nan
21153;BME280;10734;44.792;20.482;2023-04-20T12:31:44;99755.53;;;21.13;nan
21153;BME280;10734;44.792;20.482;2023-04-20T12:34:11;99759.38;;;21.54;nan
21153;BME280;10734;44.792;20.482;2023-04-20T12:36:38;99756.59;;;21.46;nan
21153;BME280;10734;44.792;20.482;2023-04-20T12:39:05;99757.63;;;21.45;nan
21153;BME280;10734;44.792;20.482;2023-04-20T12:41:31;99755.22;;;21.84;nan
21153;BME280;10734;44.792;20.482;2023-04-20T12:43:59;99754.13;;;21.69;nan
21153;BME280;10734;44.792;20.482;2023-04-20T12:46:28;99745.91;;;21.09;nan
21153;BME280;10734;44.792;20.482;2023-04-20T12:48:55;99760.72;;;20.54;nan
21153;BME280;10734;44.792;20.482;2023-04-20T12:51:22;99742.03;;;21.19;nan
21153;BME280;10734;44.792;20.482;2023-04-20T12:53:49;99744.00;;;21.09;nan
21153;BME280;10734;44.792;20.482;2023-04-20T12:56:15;99748.13;;;20.61;nan
21153;BME280;10734;44.792;20.482;2023-04-20T12:58:43;99742.34;;;19.83;nan
21153;BME280;10734;44.792;20.482;2023-04-20T13:01:10;99742.88;;;19.59;nan
21153;BME280;10734;44.792;20.482;2023-04-20T13:03:37;99737.22;;;19.43;nan
21153;BME280;10734;44.792;20.482;2023-04-20T13:06:04;99741.00;;;19.32;nan
21153;BME280;10734;44.792;20.482;2023-04-20T13:08:31;99733.28;;;19.82;nan
21153;BME280;10734;44.792;20.482;2023-04-20T13:10:58;99732.00;;;21.02;nan
21153;BME280;10734;44.792;20.482;2023-04-20T13:13:25;99730.16;;;21.71;nan
21153;BME280;10734;44.792;20.482;2023-04-20T13:15:52;99739.88;;;21.57;nan
21153;BME280;10734;44.792;20.482;2023-04-20T13:18:20;99732.28;;;21.17;nan
21153;BME280;10734;44.792;20.482;2023-04-20T13:20:49;99719.41;;;20.83;nan
21153;BME280;10734;44.792;20.482;2023-04-20T13:23:16;99720.88;;;20.77;nan
21153;BME280;10734;44.792;20.482;2023-04-20T13:25:43;99723.56;;;21.21;nan
21153;BME280;10734;44.792;20.482;2023-04-20T13:28:10;99717.31;;;21.71;nan
21153;BME280;10734;44.792;20.482;2023-04-20T13:30:39;99720.38;;;22.19;nan
21153;BME280;10734;44.792;20.482;2023-04-20T13:33:06;99718.16;;;22.31;nan
21153;BME280;10734;44.792;20.482;2023-04-20T13:35:33;99708.91;;;22.32;nan
21153;BME280;10734;44.792;20.482;2023-04-20T13:38:03;99713.34;;;22.65;nan
21153;BME280;10734;44.792;20.482;2023-04-20T13:40:30;99705.28;;;22.80;nan
21153;BME280;10734;44.792;20.482;2023-04-20T13:42:56;99698.25;;;22.45;nan
21153;BME280;10734;44.792;20.482;2023-04-20T13:45:24;99702.03;;;22.77;nan
21153;BME280;10734;44.792;20.482;2023-04-20T13:47:50;99702.03;;;23.01;nan
21153;BME280;10734;44.792;20.482;2023-04-20T13:50:17;99696.00;;;22.81;nan
21153;BME280;10734;44.792;20.482;2023-04-20T13:52:44;99681.78;;;22.94;nan
21153;BME280;10734;44.792;20.482;2023-04-20T13:55:11;99691.66;;;23.28;nan
21153;BME280;10734;44.792;20.482;2023-04-20T13:57:37;99687.84;;;23.37;nan
21153;BME280;10734;44.792;20.482;2023-04-20T14:00:05;99692.94;;;23.48;nan
21153;BME280;10734;44.792;20.482;2023-04-20T14:02:32;99684.38;;;23.82;nan
21153;BME280;10734;44.792;20.482;2023-04-20T14:04:59;99684.56;;;23.81;nan
21153;BME280;10734;44.792;20.482;2023-04-20T14:07:26;99692.19;;;23.63;nan
21153;BME280;10734;44.792;20.482;2023-04-20T14:09:53;99692.91;;;23.17;nan
21153;BME280;10734;44.792;20.482;2023-04-20T14:12:22;99680.41;;;23.06;nan
21153;BME280;10734;44.792;20.482;2023-04-20T14:14:49;99685.09;;;23.37;nan
21153;BME280;10734;44.792;20.482;2023-04-20T14:17:16;99691.31;;;24.01;nan
21153;BME280;10734;44.792;20.482;2023-04-20T14:19:43;99678.81;;;24.45;nan
21153;BME280;10734;44.792;20.482;2023-04-20T14:22:10;99679.03;;;24.12;nan
21153;BME280;10734;44.792;20.482;2023-04-20T14:24:37;99678.56;;;23.38;nan
21153;BME280;10734;44.792;20.482;2023-04-20T14:27:03;99673.25;;;22.40;nan
21153;BME280;10734;44.792;20.482;2023-04-20T14:29:30;99693.97;;;22.26;nan
21153;BME280;10734;44.792;20.482;2023-04-20T14:31:58;99684.22;;;22.56;nan
21153;BME280;10734;44.792;20.482;2023-04-20T14:34:25;99681.44;;;22.64;nan
21153;BME280;10734;44.792;20.482;2023-04-20T14:36:51;99678.72;;;22.40;nan
21153;BME280;10734;44.792;20.482;2023-04-20T14:39:18;99671.16;;;22.66;nan
21153;BME280;10734;44.792;20.482;2023-04-20T14:41:51;99665.63;;;22.91;nan
21153;BME280;10734;44.792;20.482;2023-04-20T14:44:18;99666.53;;;23.39;nan
21153;BME280;10734;44.792;20.482;2023-04-20T14:46:45;99667.47;;;23.94;nan
21153;BME280;10734;44.792;20.482;2023-04-20T14:49:12;99667.47;;;24.17;nan
21153;BME280;10734;44.792;20.482;2023-04-20T14:51:39;99675.47;;;24.03;nan
21153;BME280;10734;44.792;20.482;2023-04-20T14:54:06;99664.56;;;23.17;nan
21153;BME280;10734;44.792;20.482;2023-04-20T14:56:33;99663.38;;;23.50;nan
21153;BME280;10734;44.792;20.482;2023-04-20T14:59:00;99663.22;;;23.52;nan
21153;BME280;10734;44.792;20.482;2023-04-20T15:01:27;99661.72;;;23.41;nan
21153;BME280;10734;44.792;20.482;2023-04-20T15:03:54;99665.38;;;23.73;nan
21153;BME280;10734;44.792;20.482;2023-04-20T15:06:21;99659.78;;;23.89;nan
21153;BME280;10734;44.792;20.482;2023-04-20T15:08:48;99657.84;;;23.58;nan
21153;BME280;10734;44.792;20.482;2023-04-20T15:11:15;99658.66;;;23.67;nan
21153;BME280;10734;44.792;20.482;2023-04-20T15:13:41;99660.19;;;24.01;nan
21153;BME280;10734;44.792;20.482;2023-04-20T15:16:09;99655.06;;;23.67;nan
21153;BME280;10734;44.792;20.482;2023-04-20T15:18:35;99657.47;;;23.70;nan
21153;BME280;10734;44.792;20.482;2023-04-20T15:21:03;99653.16;;;23.67;nan
21153;BME280;10734;44.792;20.482;2023-04-20T15:23:30;99651.16;;;23.61;nan
21153;BME280;10734;44.792;20.482;2023-04-20T15:25:56;99654.34;;;23.42;nan
21153;BME280;10734;44.792;20.482;2023-04-20T15:28:23;99657.06;;;22.94;nan
21153;BME280;10734;44.792;20.482;2023-04-20T15:30:50;99662.06;;;22.58;nan
21153;BME280;10734;44.792;20.482;2023-04-20T15:33:17;99659.69;;;22.22;nan
21153;BME280;10734;44.792;20.482;2023-04-20T15:35:44;99664.72;;;21.76;nan
21153;BME280;10734;44.792;20.482;2023-04-20T15:38:11;99657.78;;;21.39;nan
21153;BME280;10734;44.792;20.482;2023-04-20T15:40:37;99665.63;;;21.34;nan
21153;BME280;10734;44.792;20.482;2023-04-20T15:43:05;99669.56;;;21.40;nan
21153;BME280;10734;44.792;20.482;2023-04-20T15:45:31;99652.81;;;21.43;nan
21153;BME280;10734;44.792;20.482;2023-04-20T15:47:58;99667.09;;;21.20;nan
21153;BME280;10734;44.792;20.482;2023-04-20T15:50:26;99664.03;;;21.32;nan
21153;BME280;10734;44.792;20.482;2023-04-20T15:52:53;99664.09;;;21.06;nan
21153;BME280;10734;44.792;20.482;2023-04-20T15:55:20;99666.22;;;21.20;nan
21153;BME280;10734;44.792;20.482;2023-04-20T15:57:47;99664.00;;;20.63;nan
21153;BME280;10734;44.792;20.482;2023-04-20T16:00:14;99658.22;;;20.04;nan
21153;BME280;10734;44.792;20.482;2023-04-20T16:02:41;99665.13;;;19.63;nan
21153;BME280;10734;44.792;20.482;2023-04-20T16:05:08;99668.38;;;19.39;nan
21153;BME280;10734;44.792;20.482;2023-04-20T16:07:35;99668.81;;;19.44;nan
21153;BME280;10734;44.792;20.482;2023-04-20T16:10:02;99663.59;;;19.51;nan
21153;BME280;10734;44.792;20.482;2023-04-20T16:12:31;99662.19;;;19.47;nan
21153;BME280;10734;44.792;20.482;2023-04-20T16:14:59;99667.44;;;19.30;nan
21153;BME280;10734;44.792;20.482;2023-04-20T16:17:26;99665.88;;;19.28;nan
21153;BME280;10734;44.792;20.482;2023-04-20T16:19:53;99671.03;;;19.31;nan
21153;BME280;10734;44.792;20.482;2023-04-20T16:22:20;99663.69;;;19.31;nan
21153;BME280;10734;44.792;20.482;2023-04-20T16:24:46;99672.44;;;19.07;nan
21153;BME280;10734;44.792;20.482;2023-04-20T16:27:13;99670.38;;;19.19;nan
21153;BME280;10734;44.792;20.482;2023-04-20T16:29:40;99669.75;;;19.25;nan
21153;BME280;10734;44.792;20.482;2023-04-20T16:32:07;99653.63;;;19.04;nan
21153;BME280;10734;44.792;20.482;2023-04-20T16:34:33;99656.47;;;18.75;nan
21153;BME280;10734;44.792;20.482;2023-04-20T16:37:00;99661.16;;;18.93;nan
21153;BME280;10734;44.792;20.482;2023-04-20T16:39:29;99657.16;;;18.77;nan
21153;BME280;10734;44.792;20.482;2023-04-20T16:41:56;99661.94;;;18.56;nan
21153;BME280;10734;44.792;20.482;2023-04-20T16:44:24;99659.41;;;18.35;nan
21153;BME280;10734;44.792;20.482;2023-04-20T16:46:51;99662.72;;;18.09;nan
21153;BME280;10734;44.792;20.482;2023-04-20T16:49:18;99663.72;;;17.99;nan
21153;BME280;10734;44.792;20.482;2023-04-20T16:51:44;99670.00;;;17.80;nan
21153;BME280;10734;44.792;20.482;2023-04-20T16:54:11;99665.94;;;17.55;nan
21153;BME280;10734;44.792;20.482;2023-04-20T16:56:38;99677.34;;;17.39;nan
21153;BME280;10734;44.792;20.482;2023-04-20T16:59:05;99667.28;;;17.20;nan
21153;BME280;10734;44.792;20.482;2023-04-20T17:01:32;99674.28;;;17.13;nan
21153;BME280;10734;44.792;20.482;2023-04-20T17:03:59;99684.88;;;17.16;nan
21153;BME280;10734;44.792;20.482;2023-04-20T17:06:26;99683.78;;;16.97;nan
21153;BME280;10734;44.792;20.482;2023-04-20T17:08:53;99686.44;;;16.88;nan
21153;BME280;10734;44.792;20.482;2023-04-20T17:11:22;99687.28;;;16.78;nan
21153;BME280;10734;44.792;20.482;2023-04-20T17:13:49;99687.19;;;16.69;nan
21153;BME280;10734;44.792;20.482;2023-04-20T17:16:17;99689.69;;;16.61;nan
